Terminal Aerodrome Forecast
Issued by NWS Upton, NY

Home | Current Version | Previous Version | Text Only | Print | Product List | Glossary On
Versions: 1 2 3 4 5 6 7 8 9 10 11 12 13 14 15 16 17 18 19 20 21 22 23 24 25 26 27 28 29 30 31 32 33 34 35 36 37 38 39 40 41
829
FTUS41 KOKX 262339
TAFJFK
TAF
KJFK 262339Z 2700/2806 23010KT P6SM SCT250
     FM270300 VRB04KT P6SM BKN200
     FM271200 11005KT P6SM SCT035 SCT080 BKN120
     FM271400 12006KT 3SM SHRA BR SCT010 BKN030
     FM271700 10010KT 3SM SHRA BR BKN009
     FM272000 07006KT 2SM -DZ BR BKN007
     FM280000 VRB05KT 2SM BR BKN008=

USA.gov is the U.S. government's official web portal to all federal, state and local government web resources and services.